Time;durP1;ratioP1;P1;durP2;ratioP2;P2;SDS_P1;SDS_P2;PMS_P1;PMS_P2;Temp;Humidity;BMP_temperature;BMP_pressure;BME280_temperature;BME280_humidity;BME280_pressure;Samples;Min_cycle;Max_cycle;Signal;HPM_P1;HPM_P2
2021/01/09 00:02:42;;;;;;;115.55;39.55;;;-0.50;99.90;;;;;;4394727;28;661920;-60
2021/01/09 00:05:29;;;;;;;58.37;20.60;;;-0.50;99.90;;;;;;4370759;28;661181;-60
2021/01/09 00:08:16;;;;;;;115.87;41.03;;;-0.40;99.90;;;;;;4398739;28;659568;-60
2021/01/09 00:11:03;;;;;;;101.40;41.00;;;-0.40;99.90;;;;;;4397836;28;659237;-60
2021/01/09 00:13:50;;;;;;;96.67;38.37;;;-0.40;99.90;;;;;;4379313;28;660565;-60
2021/01/09 00:16:45;;;;;;;98.17;37.27;;;-0.40;99.90;;;;;;4390304;28;658158;-60
2021/01/09 00:19:32;;;;;;;84.13;32.88;;;-0.60;99.90;;;;;;4375783;28;658936;-60
2021/01/09 00:22:19;;;;;;;101.47;35.13;;;-0.20;99.90;;;;;;4373058;28;658717;-59
2021/01/09 00:25:07;;;;;;;43.40;15.10;;;-0.40;99.90;;;;;;4397299;28;660814;-60
2021/01/09 00:27:54;;;;;;;89.93;33.00;;;-0.60;99.90;;;;;;4372856;28;658348;-60
2021/01/09 00:30:41;;;;;;;73.23;26.67;;;-0.60;99.90;;;;;;4387582;28;660108;-60
2021/01/09 00:33:29;;;;;;;36.97;13.03;;;-0.50;99.90;;;;;;4382787;28;659133;-60
2021/01/09 00:36:16;;;;;;;70.60;26.70;;;-0.20;99.90;;;;;;4375758;28;659595;-61
2021/01/09 00:39:03;;;;;;;66.50;28.67;;;-0.30;99.90;;;;;;4390750;28;659442;-60
2021/01/09 00:41:50;;;;;;;80.73;30.43;;;-0.50;99.90;;;;;;4375785;28;660520;-61
2021/01/09 00:44:37;;;;;;;53.20;20.83;;;-0.50;99.90;;;;;;4397438;28;658705;-61
2021/01/09 00:47:24;;;;;;;68.30;27.37;;;-0.60;99.90;;;;;;4372003;28;658488;-61
2021/01/09 00:50:13;;;;;;;67.33;25.60;;;-0.60;99.90;;;;;;4391157;28;659779;-61
2021/01/09 00:53:00;;;;;;;38.87;13.03;;;-0.50;99.90;;;;;;4377796;28;658721;-60
2021/01/09 00:55:47;;;;;;;60.30;25.20;;;-0.60;99.90;;;;;;4390604;28;658827;-61
2021/01/09 00:58:34;;;;;;;67.67;27.83;;;-0.70;99.90;;;;;;4386552;28;659965;-58
2021/01/09 01:01:21;;;;;;;74.67;25.23;;;-0.90;99.90;;;;;;4408221;28;659911;-60
2021/01/09 01:04:09;;;;;;;62.43;26.77;;;-0.90;99.90;;;;;;4412020;28;658455;-58
2021/01/09 01:06:57;;;;;;;68.53;27.63;;;-1.10;99.90;;;;;;4418747;28;658573;-61
2021/01/09 01:09:44;;;;;;;71.50;26.23;;;-1.10;99.90;;;;;;4396464;28;658866;-60
2021/01/09 01:12:31;;;;;;;55.23;20.37;;;-1.20;99.90;;;;;;4413281;28;658106;-61
2021/01/09 01:15:19;;;;;;;60.90;25.47;;;-1.00;99.90;;;;;;4414795;28;658786;-61
2021/01/09 01:18:06;;;;;;;53.78;20.55;;;-1.10;99.90;;;;;;4395975;28;658700;-61
2021/01/09 01:20:53;;;;;;;65.30;25.03;;;-1.00;99.90;;;;;;4414260;28;658521;-61
2021/01/09 01:23:41;;;;;;;56.17;23.23;;;-1.00;99.90;;;;;;4385336;28;658920;-61
2021/01/09 01:26:28;;;;;;;55.23;20.00;;;-1.00;99.90;;;;;;4414692;28;659825;-61
2021/01/09 01:29:15;;;;;;;58.90;23.30;;;-1.20;99.90;;;;;;4385121;28;660624;-61
2021/01/09 01:32:02;;;;;;;60.83;25.10;;;-1.20;99.90;;;;;;4414046;28;659834;-61
2021/01/09 01:34:49;;;;;;;61.93;24.00;;;-1.10;99.90;;;;;;4388754;28;659151;-60
2021/01/09 01:37:36;;;;;;;51.67;19.77;;;-1.10;99.90;;;;;;4404038;28;659183;-61
2021/01/09 01:40:25;;;;;;;48.77;19.43;;;-1.10;99.90;;;;;;4414473;28;658626;-61
2021/01/09 01:43:12;;;;;;;51.53;21.57;;;-1.00;99.90;;;;;;4390942;28;660637;-61
2021/01/09 01:45:59;;;;;;;54.23;22.33;;;-1.00;99.90;;;;;;4380974;28;658910;-60
2021/01/09 01:48:46;;;;;;;61.03;23.70;;;-1.10;99.90;;;;;;4413893;28;660682;-61
2021/01/09 01:51:33;;;;;;;47.70;18.57;;;-1.20;99.90;;;;;;4407424;28;658208;-61
2021/01/09 01:54:21;;;;;;;49.53;19.67;;;-1.10;99.90;;;;;;4391329;28;659506;-61
2021/01/09 01:57:11;;;;;;;43.97;18.87;;;-0.90;99.90;;;;;;4406402;28;658546;-58
2021/01/09 01:59:59;;;;;;;56.47;19.73;;;-1.00;99.90;;;;;;4406433;28;659965;-60
2021/01/09 02:02:46;;;;;;;26.03;10.30;;;-1.10;99.90;;;;;;4417735;28;658272;-61
2021/01/09 02:05:36;;;;;;;51.27;20.93;;;-1.00;99.90;;;;;;4412008;28;658866;-61
2021/01/09 02:08:25;;;;;;;54.47;20.83;;;-1.10;99.90;;;;;;4386124;28;658631;-61
2021/01/09 02:11:15;;;;;;;60.70;22.30;;;-1.10;99.90;;;;;;4390765;28;659347;-61
2021/01/09 02:14:05;;;;;;;55.47;21.63;;;-1.10;99.90;;;;;;4386445;28;659293;-61
2021/01/09 02:16:52;;;;;;;48.73;20.23;;;-1.00;99.90;;;;;;4391291;28;659573;-61
2021/01/09 02:19:40;;;;;;;55.33;22.40;;;-1.10;99.90;;;;;;4390203;28;660277;-59
2021/01/09 02:22:27;;;;;;;47.33;19.07;;;-1.00;99.90;;;;;;4406417;28;660488;-61
2021/01/09 02:25:15;;;;;;;38.77;12.83;;;-1.10;99.90;;;;;;4388696;28;659344;-59
2021/01/09 02:28:02;;;;;;;43.20;16.73;;;-0.90;99.90;;;;;;4406117;28;660474;-61
2021/01/09 02:30:49;;;;;;;50.53;19.63;;;-1.00;99.90;;;;;;4388341;28;659048;-60
2021/01/09 02:33:36;;;;;;;42.33;17.17;;;-1.00;99.90;;;;;;4398319;28;660266;-61
2021/01/09 02:36:24;;;;;;;48.60;18.57;;;-1.10;99.90;;;;;;4408648;28;659394;-58
2021/01/09 02:39:11;;;;;;;49.30;19.20;;;-1.10;99.90;;;;;;4410232;28;659608;-61
2021/01/09 02:41:59;;;;;;;49.83;19.50;;;-1.10;99.90;;;;;;4407948;28;659982;-61
2021/01/09 02:44:47;;;;;;;44.28;17.77;;;-1.20;99.90;;;;;;4391032;28;659341;-61
2021/01/09 02:47:34;;;;;;;45.07;18.07;;;-1.20;99.90;;;;;;4398102;28;658559;-60
2021/01/09 02:50:21;;;;;;;45.77;18.70;;;-1.10;99.90;;;;;;4414357;28;660217;-61
2021/01/09 02:53:09;;;;;;;43.25;18.23;;;-1.00;99.90;;;;;;4403654;28;658655;-59
2021/01/09 02:55:56;;;;;;;49.10;19.58;;;-1.10;99.90;;;;;;4413751;28;659192;-61
2021/01/09 02:58:43;;;;;;;41.90;17.30;;;-1.20;99.90;;;;;;4417417;28;659470;-61
2021/01/09 03:01:31;;;;;;;43.40;17.23;;;-1.20;99.90;;;;;;4387883;28;660408;-61
2021/01/09 03:04:18;;;;;;;47.40;18.35;;;-1.20;99.90;;;;;;4416892;28;659909;-61
2021/01/09 03:07:05;;;;;;;49.43;19.47;;;-1.20;99.90;;;;;;4388777;28;658468;-61
2021/01/09 03:09:52;;;;;;;36.38;14.90;;;-1.20;99.90;;;;;;4416864;28;659389;-61
2021/01/09 03:12:39;;;;;;;40.28;17.80;;;-1.10;99.90;;;;;;4391510;28;660225;-57
2021/01/09 03:15:27;;;;;;;46.80;19.67;;;-0.90;99.90;;;;;;4420243;28;658465;-61
2021/01/09 03:18:14;;;;;;;10.45;5.38;;;-0.90;99.90;;;;;;4391955;28;658888;-57
2021/01/09 03:21:01;;;;;;;42.43;18.10;;;-0.80;99.90;;;;;;4422315;28;658206;-61
2021/01/09 03:23:48;;;;;;;48.53;20.10;;;-0.90;99.90;;;;;;4410054;28;659101;-61
2021/01/09 03:26:35;;;;;;;43.58;19.25;;;-1.00;99.90;;;;;;4389801;28;658581;-61
2021/01/09 03:29:22;;;;;;;55.05;20.60;;;-1.10;99.90;;;;;;4409916;28;660061;-61
2021/01/09 03:32:10;;;;;;;50.17;21.00;;;-1.20;99.90;;;;;;4397539;28;660216;-59
2021/01/09 03:34:57;;;;;;;53.60;20.97;;;-1.20;99.90;;;;;;4409608;28;660293;-61
2021/01/09 03:37:44;;;;;;;51.70;19.13;;;-1.20;99.90;;;;;;4390172;28;658726;-59
2021/01/09 03:40:30;;;;;;;58.27;22.03;;;-1.20;99.90;;;;;;4421156;28;658881;-61
2021/01/09 03:43:17;;;;;;;52.60;21.30;;;-1.30;99.90;;;;;;4416271;28;659063;-61
2021/01/09 03:46:04;;;;;;;71.13;26.17;;;-1.30;99.90;;;;;;4388133;28;659640;-61
2021/01/09 03:48:52;;;;;;;59.40;22.17;;;-1.30;99.90;;;;;;4419776;28;660432;-61
2021/01/09 03:51:39;;;;;;;64.57;24.73;;;-1.30;99.90;;;;;;4390334;28;658506;-61
2021/01/09 03:54:26;;;;;;;49.73;18.73;;;-1.30;99.90;;;;;;4415178;28;659783;-61
2021/01/09 03:57:14;;;;;;;51.07;20.77;;;-1.30;99.90;;;;;;4407251;28;658462;-60
2021/01/09 04:00:01;;;;;;;50.83;21.33;;;-1.20;99.90;;;;;;4416167;28;659797;-61
2021/01/09 04:02:48;;;;;;;48.97;20.17;;;-1.20;99.90;;;;;;4409702;28;658384;-61
2021/01/09 04:05:36;;;;;;;51.23;21.20;;;-1.20;99.90;;;;;;4396932;28;659689;-61
2021/01/09 04:08:23;;;;;;;51.23;20.13;;;-1.20;99.90;;;;;;4410068;28;658340;-61
2021/01/09 04:11:10;;;;;;;54.20;20.90;;;-1.20;99.90;;;;;;4393128;28;660223;-61
2021/01/09 04:13:57;;;;;;;52.07;20.80;;;-1.20;99.90;;;;;;4410723;28;660636;-61
2021/01/09 04:16:44;;;;;;;47.83;20.40;;;-1.30;99.90;;;;;;4396742;28;658623;-59
2021/01/09 04:19:31;;;;;;;44.23;16.50;;;-1.10;99.90;;;;;;4414825;28;658540;-61
2021/01/09 04:22:18;;;;;;;48.92;19.30;;;-1.00;99.90;;;;;;4415193;28;658872;-61
2021/01/09 04:25:06;;;;;;;51.53;21.37;;;-1.00;99.90;;;;;;4393192;28;660232;-61
2021/01/09 04:27:54;;;;;;;53.73;20.13;;;-1.00;99.90;;;;;;4388334;28;659525;-60
2021/01/09 04:30:41;;;;;;;51.45;20.00;;;-1.10;99.90;;;;;;4419831;28;658456;-61
2021/01/09 04:33:27;;;;;;;37.23;14.37;;;-1.00;99.90;;;;;;4409715;28;659470;-62
2021/01/09 04:36:14;;;;;;;23.07;8.13;;;-1.00;99.90;;;;;;4396529;28;658752;-61
2021/01/09 04:39:03;;;;;;;46.60;19.13;;;-1.00;99.90;;;;;;4408965;28;657770;-61
2021/01/09 04:41:50;;;;;;;33.25;13.20;;;-1.00;99.90;;;;;;4386778;28;659981;-61
2021/01/09 04:44:37;;;;;;;48.43;20.43;;;-0.90;99.90;;;;;;4419975;28;659728;-61
2021/01/09 04:47:24;;;;;;;16.03;6.37;;;-1.00;99.90;;;;;;4396258;28;660260;-61
2021/01/09 04:50:12;;;;;;;34.93;15.30;;;-0.90;99.90;;;;;;4415922;28;658610;-61
2021/01/09 04:52:59;;;;;;;49.30;19.57;;;-0.80;99.90;;;;;;4395559;28;661104;-60
2021/01/09 04:55:47;;;;;;;52.00;19.13;;;-0.70;99.90;;;;;;4414928;28;659661;-61
2021/01/09 04:58:34;;;;;;;53.57;20.00;;;-0.90;99.90;;;;;;4388067;28;658673;-61
2021/01/09 05:01:21;;;;;;;49.20;20.83;;;-0.90;99.90;;;;;;4414381;28;659568;-61
2021/01/09 05:04:09;;;;;;;40.97;17.27;;;-0.90;99.90;;;;;;4406196;28;659224;-59
2021/01/09 05:06:56;;;;;;;42.57;19.20;;;-1.00;99.90;;;;;;4414562;28;659855;-61
2021/01/09 05:09:43;;;;;;;47.57;20.70;;;-1.00;99.90;;;;;;4408595;28;659955;-61
2021/01/09 05:12:33;;;;;;;49.93;20.50;;;-1.00;99.90;;;;;;4384723;28;659801;-61
2021/01/09 05:15:20;;;;;;;52.70;21.57;;;-1.00;99.90;;;;;;4386919;28;659878;-61
2021/01/09 05:18:07;;;;;;;49.20;19.67;;;-1.00;99.90;;;;;;4414532;28;658875;-61
2021/01/09 05:20:57;;;;;;;45.67;18.93;;;-1.00;99.90;;;;;;4386014;28;659517;-61
2021/01/09 05:23:51;;;;;;;15.93;6.60;;;-1.00;99.90;;;;;;4395481;28;658940;-61
2021/01/09 05:26:38;;;;;;;42.28;16.33;;;-0.90;99.90;;;;;;4386888;28;658431;-62
2021/01/09 05:29:26;;;;;;;8.03;4.03;;;-0.90;99.90;;;;;;4395600;28;658848;-61
2021/01/09 05:32:13;;;;;;;37.77;16.23;;;-0.50;99.90;;;;;;4409307;28;656782;-61
2021/01/09 05:35:00;;;;;;;43.17;17.23;;;-0.60;99.90;;;;;;4385121;28;660209;-61
2021/01/09 05:37:50;;;;;;;33.70;12.20;;;-0.60;99.90;;;;;;4407105;28;659965;-61
2021/01/09 05:40:38;;;;;;;41.10;17.83;;;-0.60;99.90;;;;;;4385446;28;659852;-61
2021/01/09 05:43:25;;;;;;;34.13;13.50;;;-0.60;99.90;;;;;;4389370;28;659154;-61
2021/01/09 05:46:14;;;;;;;43.23;19.20;;;-0.70;99.90;;;;;;4414224;28;659803;-61
2021/01/09 05:49:01;;;;;;;14.73;7.57;;;-0.80;99.90;;;;;;4385372;28;659821;-61
2021/01/09 05:51:49;;;;;;;43.07;18.03;;;-0.80;99.90;;;;;;4410548;28;658343;-57
2021/01/09 05:54:36;;;;;;;46.73;19.67;;;-0.60;99.90;;;;;;4408910;28;660196;-61
2021/01/09 05:57:27;;;;;;;52.90;20.97;;;-0.70;99.90;;;;;;4407910;28;658614;-61
2021/01/09 06:00:15;;;;;;;52.10;20.27;;;-0.80;99.90;;;;;;4362906;28;658553;-60
2021/01/09 06:03:11;;;;;;;53.53;20.70;;;-0.90;99.90;;;;;;4412777;28;658732;-61
2021/01/09 06:05:58;;;;;;;52.30;21.58;;;-0.80;99.90;;;;;;4386970;28;659301;-61
2021/01/09 06:08:49;;;;;;;48.00;20.47;;;-0.90;99.90;;;;;;4395093;28;660233;-60
2021/01/09 06:11:37;;;;;;;51.13;20.63;;;-0.90;99.90;;;;;;4391075;28;659525;-61
2021/01/09 06:14:26;;;;;;;53.73;21.87;;;-0.90;99.90;;;;;;4385682;28;659846;-61
2021/01/09 06:17:13;;;;;;;31.37;13.17;;;-0.90;99.90;;;;;;4410391;28;659860;-61
2021/01/09 06:20:01;;;;;;;48.40;20.03;;;-0.90;99.90;;;;;;4387222;28;658646;-61
2021/01/09 06:22:49;;;;;;;52.53;21.47;;;-0.90;99.90;;;;;;4408852;28;658846;-59
2021/01/09 06:25:36;;;;;;;50.47;20.57;;;-1.00;99.90;;;;;;4403132;28;657911;-61
2021/01/09 06:28:23;;;;;;;38.90;17.25;;;-0.90;99.90;;;;;;4414026;28;659398;-61
2021/01/09 06:31:10;;;;;;;48.58;20.75;;;-1.00;99.90;;;;;;4381086;28;659274;-61
2021/01/09 06:34:01;;;;;;;51.30;21.83;;;-1.00;99.90;;;;;;4413293;28;660669;-61
2021/01/09 06:36:54;;;;;;;57.90;22.50;;;-1.00;99.90;;;;;;4390715;28;658379;-61
2021/01/09 06:39:41;;;;;;;47.17;19.50;;;-1.10;99.90;;;;;;4391158;28;659185;-61
2021/01/09 06:42:29;;;;;;;50.47;21.37;;;-1.10;99.90;;;;;;4399268;28;658285;-60
2021/01/09 06:45:16;;;;;;;48.93;20.57;;;-1.10;99.90;;;;;;4417672;28;658865;-61
2021/01/09 06:48:03;;;;;;;54.60;22.83;;;-1.10;99.90;;;;;;4407132;28;659685;-61
2021/01/09 06:50:50;;;;;;;51.10;21.43;;;-1.10;99.90;;;;;;4394953;28;658980;-61
2021/01/09 06:53:38;;;;;;;54.10;21.73;;;-0.90;99.90;;;;;;4407672;28;660316;-61
2021/01/09 06:56:29;;;;;;;57.93;23.23;;;-1.00;99.90;;;;;;4392460;28;658648;-61
2021/01/09 06:59:29;;;;;;;55.93;23.63;;;-1.10;99.90;;;;;;4390114;28;659047;-61
2021/01/09 07:02:21;;;;;;;58.37;22.37;;;-1.10;99.90;;;;;;4364172;28;660435;-61
2021/01/09 07:05:19;;;;;;;55.67;23.43;;;-1.00;99.90;;;;;;4384069;28;658511;-61
2021/01/09 07:08:06;;;;;;;53.93;22.50;;;-0.90;99.90;;;;;;4367549;28;659675;-61
2021/01/09 07:10:55;;;;;;;55.47;23.90;;;-0.80;99.90;;;;;;4408192;28;658857;-61
2021/01/09 07:13:43;;;;;;;60.60;25.93;;;-0.90;99.90;;;;;;4390920;28;659931;-61
2021/01/09 07:16:30;;;;;;;57.70;24.70;;;-0.90;99.90;;;;;;4384712;28;659542;-61
2021/01/09 07:19:17;;;;;;;59.77;24.57;;;-0.90;99.90;;;;;;4405526;28;660317;-61
2021/01/09 07:22:04;;;;;;;63.80;25.60;;;-0.80;99.90;;;;;;4391477;28;658724;-61
2021/01/09 07:24:54;;;;;;;58.93;27.00;;;-0.90;99.90;;;;;;4410785;28;660681;-60
2021/01/09 07:27:44;;;;;;;55.37;24.37;;;-0.90;99.90;;;;;;4384307;28;659649;-61
2021/01/09 07:30:31;;;;;;;51.65;21.00;;;-0.70;99.90;;;;;;4397572;28;660309;-61
2021/01/09 07:33:18;;;;;;;64.07;25.70;;;-0.70;99.90;;;;;;4402387;28;658907;-61
2021/01/09 07:36:06;;;;;;;56.55;25.15;;;-0.70;99.90;;;;;;4397778;28;658781;-61
2021/01/09 07:38:59;;;;;;;50.43;19.40;;;-0.70;99.90;;;;;;4412467;28;658589;-61
2021/01/09 07:41:46;;;;;;;57.33;23.43;;;-0.40;99.90;;;;;;4360619;28;658941;-70
2021/01/09 07:44:35;;;;;;;59.37;25.37;;;-0.40;99.90;;;;;;4409550;28;658824;-66
2021/01/09 07:47:28;;;;;;;63.03;24.43;;;-0.30;99.90;;;;;;4415200;28;659760;-69
2021/01/09 07:50:16;;;;;;;31.00;8.23;;;-0.20;99.90;;;;;;4368377;28;659274;-64
2021/01/09 07:53:05;;;;;;;48.97;19.30;;;-0.30;99.90;;;;;;4392919;28;657462;-66
2021/01/09 07:55:53;;;;;;;58.03;24.00;;;-0.20;99.90;;;;;;4410160;28;658192;-69
2021/01/09 07:58:43;;;;;;;60.38;25.35;;;-0.30;99.90;;;;;;4396398;28;659246;-69
2021/01/09 08:01:39;;;;;;;64.60;24.77;;;-0.30;99.90;;;;;;4396783;28;659623;-69
2021/01/09 08:04:26;;;;;;;66.80;26.93;;;-0.40;99.90;;;;;;4394011;28;660794;-69
2021/01/09 08:07:16;;;;;;;66.07;27.50;;;-0.40;99.90;;;;;;4407426;28;658357;-66
2021/01/09 08:10:20;;;;;;;67.53;25.50;;;-0.40;99.90;;;;;;4415592;28;659037;-70
2021/01/09 08:13:08;;;;;;;67.03;26.77;;;-0.40;99.90;;;;;;4391194;28;658726;-69
2021/01/09 08:15:55;;;;;;;67.88;26.92;;;-0.30;99.90;;;;;;4386779;28;658516;-69
2021/01/09 08:18:44;;;;;;;63.77;25.30;;;-0.10;99.90;;;;;;4407601;28;660354;-69
2021/01/09 08:21:31;;;;;;;62.00;26.10;;;0.00;99.90;;;;;;4392220;28;660419;-70
2021/01/09 08:24:22;;;;;;;41.20;14.70;;;0.10;99.90;;;;;;4402056;28;657160;-66
2021/01/09 08:27:09;;;;;;;42.63;17.47;;;0.30;99.90;;;;;;4389655;28;657952;-69
2021/01/09 08:29:56;;;;;;;55.97;23.00;;;0.30;99.90;;;;;;4408476;28;659489;-69
2021/01/09 08:32:43;;;;;;;58.17;25.10;;;0.30;99.90;;;;;;4415650;28;657605;-69
2021/01/09 08:35:31;;;;;;;55.07;23.23;;;0.30;99.90;;;;;;4391308;28;657506;-69
2021/01/09 08:38:18;;;;;;;57.97;23.63;;;0.30;99.90;;;;;;4413550;28;658124;-70
2021/01/09 08:41:05;;;;;;;56.07;23.57;;;0.40;99.90;;;;;;4396482;28;657419;-69
2021/01/09 08:43:52;;;;;;;54.53;21.27;;;0.40;99.90;;;;;;4415310;28;659086;-68
2021/01/09 08:46:40;;;;;;;46.07;20.57;;;0.60;99.90;;;;;;4396837;28;657680;-69
2021/01/09 08:49:27;;;;;;;49.17;22.57;;;0.70;99.90;;;;;;4415155;28;659277;-69
2021/01/09 08:52:17;;;;;;;50.00;21.25;;;0.70;99.90;;;;;;4392650;28;658324;-68
2021/01/09 08:55:05;;;;;;;43.93;19.30;;;0.90;99.90;;;;;;4393574;28;657673;-68
2021/01/09 08:57:53;;;;;;;50.50;21.53;;;1.10;99.90;;;;;;4400314;28;657153;-69
2021/01/09 09:00:40;;;;;;;54.57;24.10;;;1.20;99.90;;;;;;4386745;28;658010;-68
2021/01/09 09:03:27;;;;;;;52.90;22.53;;;1.20;99.90;;;;;;4414701;28;658673;-68
2021/01/09 09:06:14;;;;;;;50.22;20.92;;;1.60;99.90;;;;;;4400867;28;657818;-65
2021/01/09 09:09:02;;;;;;;43.27;18.67;;;1.80;99.90;;;;;;4407107;28;659128;-68
2021/01/09 09:11:50;;;;;;;53.43;22.53;;;1.90;99.90;;;;;;4408910;28;657676;-68
2021/01/09 09:14:37;;;;;;;14.20;7.00;;;1.70;99.90;;;;;;4407569;28;657634;-68
2021/01/09 09:17:24;;;;;;;49.37;21.20;;;1.60;99.90;;;;;;4394679;28;656839;-67
2021/01/09 09:20:16;;;;;;;47.63;18.80;;;1.50;99.90;;;;;;4417656;28;658722;-69
2021/01/09 09:23:15;;;;;;;47.40;19.17;;;1.30;99.90;;;;;;4387519;28;657401;-69
2021/01/09 09:26:07;;;;;;;43.93;19.93;;;1.30;99.90;;;;;;4386060;28;657711;-68
2021/01/09 09:28:56;;;;;;;21.10;9.77;;;1.40;99.90;;;;;;4369990;28;657836;-68
2021/01/09 09:31:44;;;;;;;49.10;20.53;;;1.40;99.90;;;;;;4411617;28;656636;-66
2021/01/09 09:34:31;;;;;;;49.93;20.43;;;1.10;99.90;;;;;;4414145;28;657579;-69
2021/01/09 09:37:18;;;;;;;28.40;11.07;;;1.00;99.90;;;;;;4414842;28;658071;-68
2021/01/09 09:40:06;;;;;;;42.13;19.13;;;1.20;99.90;;;;;;4392161;28;658806;-68
2021/01/09 09:42:54;;;;;;;53.70;19.57;;;1.20;99.90;;;;;;4414855;28;657564;-68
2021/01/09 09:45:54;;;;;;;43.97;19.93;;;1.10;99.90;;;;;;4379684;28;658928;-69
2021/01/09 09:48:42;;;;;;;37.23;16.60;;;1.00;99.90;;;;;;4385938;28;658530;-69
2021/01/09 09:51:33;;;;;;;44.83;18.57;;;0.90;99.90;;;;;;4387022;28;658506;-66
2021/01/09 09:54:28;;;;;;;50.47;20.13;;;1.00;99.90;;;;;;4386670;28;657833;-69
2021/01/09 09:57:21;;;;;;;47.53;18.87;;;0.90;99.90;;;;;;4388098;28;658293;-68
2021/01/09 10:00:11;;;;;;;48.13;21.10;;;0.80;99.90;;;;;;4372112;28;657417;-65
2021/01/09 10:02:59;;;;;;;51.97;21.07;;;0.80;99.90;;;;;;4407861;28;657246;-65
2021/01/09 10:06:00;;;;;;;25.37;11.07;;;0.60;99.90;;;;;;4419166;28;657561;-68
2021/01/09 10:08:47;;;;;;;34.77;14.23;;;0.80;99.90;;;;;;4373251;28;657540;-69
2021/01/09 10:11:34;;;;;;;47.43;19.87;;;1.00;99.90;;;;;;4396156;28;657810;-69
2021/01/09 10:14:21;;;;;;;56.97;23.03;;;1.10;99.90;;;;;;4407902;28;658729;-69
2021/01/09 10:17:15;;;;;;;52.90;22.07;;;1.10;99.90;;;;;;4413250;28;658334;-65
2021/01/09 10:20:02;;;;;;;49.30;20.33;;;1.00;99.90;;;;;;4390257;28;658892;-69
2021/01/09 10:22:49;;;;;;;50.33;19.20;;;1.20;99.90;;;;;;4392651;28;657888;-66
2021/01/09 10:25:36;;;;;;;46.77;21.23;;;1.20;99.90;;;;;;4417489;28;658332;-68
2021/01/09 10:28:23;;;;;;;46.60;18.50;;;1.00;99.90;;;;;;4414361;28;659688;-69
2021/01/09 10:31:10;;;;;;;37.77;16.37;;;0.90;99.90;;;;;;4388526;28;657618;-68
2021/01/09 10:33:58;;;;;;;51.20;20.90;;;0.90;99.90;;;;;;4415055;28;658432;-67
2021/01/09 10:36:45;;;;;;;51.40;18.75;;;0.80;99.90;;;;;;4391255;28;657798;-69
2021/01/09 10:39:32;;;;;;;45.60;20.10;;;0.70;99.90;;;;;;4405860;28;658284;-68
2021/01/09 10:42:19;;;;;;;43.10;18.47;;;0.70;99.90;;;;;;4391347;28;657670;-65
2021/01/09 10:45:07;;;;;;;48.55;19.33;;;0.80;99.90;;;;;;4418194;28;657509;-69
2021/01/09 10:47:54;;;;;;;42.77;15.97;;;0.80;99.90;;;;;;4382329;28;657602;-66
2021/01/09 10:50:42;;;;;;;22.15;7.25;;;0.90;99.90;;;;;;4417151;28;659521;-68
2021/01/09 10:53:29;;;;;;;47.00;19.27;;;1.00;99.90;;;;;;4394292;28;656525;-65
2021/01/09 10:56:16;;;;;;;44.15;17.80;;;1.10;99.90;;;;;;4418606;28;658012;-69
2021/01/09 10:59:03;;;;;;;38.80;15.33;;;1.10;99.90;;;;;;4414086;28;657943;-68
2021/01/09 11:01:50;;;;;;;25.58;11.52;;;1.10;99.90;;;;;;4389353;28;657789;-68
2021/01/09 11:04:37;;;;;;;49.63;17.98;;;1.10;99.90;;;;;;4411528;28;657953;-69
2021/01/09 11:07:24;;;;;;;33.00;13.67;;;1.10;99.90;;;;;;4398045;28;657786;-65
2021/01/09 11:10:12;;;;;;;43.23;16.80;;;1.20;99.90;;;;;;4415321;28;658515;-68
2021/01/09 11:12:59;;;;;;;36.43;15.33;;;1.30;99.90;;;;;;4398905;28;657574;-68
2021/01/09 11:15:46;;;;;;;48.60;19.77;;;1.20;99.90;;;;;;4415272;28;659204;-68
2021/01/09 11:18:34;;;;;;;41.67;17.65;;;1.10;99.90;;;;;;4403172;28;657792;-64
2021/01/09 11:21:21;;;;;;;49.70;20.07;;;0.90;99.90;;;;;;4422737;28;657350;-69
2021/01/09 11:24:09;;;;;;;28.37;9.77;;;0.90;99.90;;;;;;4418728;28;657482;-69
2021/01/09 11:27:03;;;;;;;36.60;14.80;;;0.90;99.90;;;;;;4396881;28;656813;-69
2021/01/09 11:29:50;;;;;;;47.85;19.75;;;0.90;99.90;;;;;;4372389;28;659285;-68
2021/01/09 11:32:37;;;;;;;49.40;18.20;;;0.80;99.90;;;;;;4418126;28;658234;-68
2021/01/09 11:35:24;;;;;;;53.72;21.83;;;0.70;99.90;;;;;;4399007;28;658170;-65
2021/01/09 11:38:21;;;;;;;45.50;18.48;;;0.70;99.90;;;;;;4406129;28;658802;-69
2021/01/09 11:41:08;;;;;;;45.30;18.70;;;0.80;99.90;;;;;;4385141;28;657532;-69
2021/01/09 11:43:55;;;;;;;48.43;20.30;;;0.70;99.90;;;;;;4376916;28;658902;-68
2021/01/09 11:46:43;;;;;;;34.93;12.97;;;0.70;99.90;;;;;;4399488;28;657579;-69
2021/01/09 11:49:29;;;;;;;26.97;9.73;;;0.80;99.90;;;;;;4383753;28;657459;-68
2021/01/09 11:52:16;;;;;;;52.87;19.27;;;0.80;99.90;;;;;;4406938;28;657300;-68
2021/01/09 11:55:05;;;;;;;27.75;10.07;;;0.70;99.90;;;;;;4399433;28;658830;-65
2021/01/09 11:57:53;;;;;;;45.28;16.90;;;0.90;99.90;;;;;;4398938;28;658853;-69
2021/01/09 12:00:40;;;;;;;48.42;19.90;;;0.90;99.90;;;;;;4380736;28;657947;-68
2021/01/09 12:03:27;;;;;;;47.07;18.57;;;0.80;99.90;;;;;;4389026;28;659748;-68
2021/01/09 12:06:17;;;;;;;52.03;20.73;;;0.70;99.90;;;;;;4380524;28;657635;-66
2021/01/09 12:09:05;;;;;;;46.50;19.17;;;0.80;99.90;;;;;;4383097;28;657408;-68
2021/01/09 12:11:55;;;;;;;49.17;19.57;;;0.70;99.90;;;;;;4408910;28;658063;-69
2021/01/09 12:14:43;;;;;;;43.57;18.87;;;0.50;99.90;;;;;;4375741;28;658510;-69
2021/01/09 12:17:30;;;;;;;46.20;20.00;;;0.40;99.90;;;;;;4380534;28;657724;-69
2021/01/09 12:20:17;;;;;;;45.83;19.03;;;0.50;99.90;;;;;;4398938;28;658140;-69
2021/01/09 12:23:04;;;;;;;43.27;19.27;;;0.70;99.90;;;;;;4380670;28;657540;-66
2021/01/09 12:25:51;;;;;;;49.23;19.83;;;0.70;99.90;;;;;;4403751;28;657945;-69
2021/01/09 12:28:38;;;;;;;45.47;17.93;;;0.50;99.90;;;;;;4413536;28;658465;-69
2021/01/09 12:31:35;;;;;;;53.63;21.07;;;0.50;99.90;;;;;;4383159;28;657775;-69
2021/01/09 12:34:22;;;;;;;44.45;18.85;;;0.50;99.90;;;;;;4379139;28;657758;-69
2021/01/09 12:37:09;;;;;;;42.20;17.10;;;0.50;99.90;;;;;;4393332;28;657361;-65
2021/01/09 12:39:56;;;;;;;46.85;19.75;;;0.60;99.90;;;;;;4407054;28;657113;-69
2021/01/09 12:42:43;;;;;;;44.53;18.87;;;0.70;99.90;;;;;;4398541;28;657883;-70
2021/01/09 12:45:30;;;;;;;30.40;12.00;;;0.70;99.90;;;;;;4380235;28;658336;-68
2021/01/09 12:48:18;;;;;;;32.75;13.85;;;0.80;99.90;;;;;;4398866;28;658952;-70
2021/01/09 12:51:05;;;;;;;35.03;15.85;;;0.90;99.90;;;;;;4380215;28;657529;-69
2021/01/09 12:53:52;;;;;;;46.70;19.73;;;1.00;99.90;;;;;;4404549;28;657990;-69
2021/01/09 12:56:39;;;;;;;35.00;15.10;;;0.90;99.90;;;;;;4385803;28;657972;-68
2021/01/09 12:59:26;;;;;;;49.63;18.50;;;1.00;99.90;;;;;;4413763;28;658910;-69
2021/01/09 13:02:14;;;;;;;43.77;18.70;;;0.90;99.90;;;;;;4402873;28;657373;-65
2021/01/09 13:05:02;;;;;;;32.30;14.63;;;0.90;99.90;;;;;;4407398;28;657617;-69
2021/01/09 13:07:49;;;;;;;44.37;19.50;;;0.90;99.90;;;;;;4390654;28;658812;-63
2021/01/09 13:10:36;;;;;;;32.70;12.73;;;0.80;99.90;;;;;;4402542;28;658490;-69
2021/01/09 13:13:23;;;;;;;51.53;19.87;;;0.90;99.90;;;;;;4398700;28;657887;-69
2021/01/09 13:16:10;;;;;;;32.07;11.83;;;0.90;99.90;;;;;;4383298;28;657877;-68
2021/01/09 13:18:57;;;;;;;40.63;17.97;;;0.90;99.90;;;;;;4398637;28;659171;-68
2021/01/09 13:21:45;;;;;;;41.43;18.23;;;0.70;99.90;;;;;;4379931;28;657822;-66
2021/01/09 13:24:32;;;;;;;48.83;20.90;;;0.60;99.90;;;;;;4398571;28;657824;-69
2021/01/09 13:27:19;;;;;;;51.20;20.37;;;0.60;99.90;;;;;;4385046;28;658291;-68
2021/01/09 13:30:07;;;;;;;25.37;10.43;;;0.70;99.90;;;;;;4415972;28;658544;-68
2021/01/09 13:32:54;;;;;;;53.67;22.03;;;1.00;99.90;;;;;;4397599;28;657625;-66
2021/01/09 13:35:41;;;;;;;36.57;15.83;;;1.10;99.90;;;;;;4416677;28;658943;-69
2021/01/09 13:38:29;;;;;;;27.83;10.83;;;1.00;99.90;;;;;;4416472;28;657825;-68
2021/01/09 13:41:16;;;;;;;45.10;17.23;;;1.00;99.90;;;;;;4376948;28;658493;-69
2021/01/09 13:44:03;;;;;;;54.17;22.30;;;0.80;99.90;;;;;;4397620;28;657600;-68
2021/01/09 13:46:50;;;;;;;45.00;20.13;;;0.70;99.90;;;;;;4379135;28;657810;-68
2021/01/09 13:49:40;;;;;;;28.07;11.17;;;0.60;99.90;;;;;;4397903;28;659941;-69
2021/01/09 13:52:27;;;;;;;38.35;17.17;;;0.60;99.90;;;;;;4387655;28;658271;-68
2021/01/09 13:55:15;;;;;;;31.75;13.57;;;0.70;99.90;;;;;;4397426;28;658826;-64
2021/01/09 13:58:02;;;;;;;36.87;16.77;;;0.50;99.90;;;;;;4415441;28;658524;-69
2021/01/09 14:00:49;;;;;;;36.97;15.27;;;0.40;99.90;;;;;;4388059;28;657808;-66
2021/01/09 14:03:36;;;;;;;32.83;14.30;;;0.50;99.90;;;;;;4394120;28;657588;-69
2021/01/09 14:06:23;;;;;;;31.15;13.40;;;0.40;99.90;;;;;;4406597;28;658223;-69